Weather at London Stansted Airport

Public forecast

Using degrees Celsius for public forecast. Weather courtesy of forecast.io.

Current aviation weather report (METAR) for London Stansted Airport

Retrieved 2022/05/23 08:20 UTC (18 minutes ago):

EGSS 230820Z AUTO 32004KT 290V360 9999 NCD 15/11 Q1002

Aviation forecast (TAF) for London Stansted Airport

Retrieved 2022/05/23 06:00 UTC (3 hours ago):

TAF EGSS 230504Z 2306/2412 26008KT 9999 SCT040 TEMPO 2310/2315 6000 RA SHRA BKN014 PROB30 TEMPO 2318/2401 7000 SHRA TEMPO 2401/2412 6000 SHRA TEMPO 2401/2409 BKN013 PROB30 TEMPO 2403/2406 4000 +SHRA BKN009 PROB40 TEMPO 2409/2412 4000 +SHRA BKN014 BKN022CB